Time;durP1;ratioP1;P1;durP2;ratioP2;P2;SDS_P1;SDS_P2;PMS_P1;PMS_P2;Temp;Humidity;BMP_temperature;BMP_pressure;BME280_temperature;BME280_humidity;BME280_pressure;Samples;Min_cycle;Max_cycle;Signal;HPM_P1;HPM_P2
2021/09/21 00:01:01;;;;;;;8.30;6.22;;;12.40;90.90;;;;;;5018269;28;20025;-85
2021/09/21 00:03:26;;;;;;;7.63;6.13;;;12.30;90.90;;;;;;5007435;28;20040;-86
2021/09/21 00:05:52;;;;;;;8.55;6.32;;;12.40;90.90;;;;;;5032725;28;20083;-86
2021/09/21 00:08:17;;;;;;;7.40;6.53;;;12.40;90.90;;;;;;5013845;28;20517;-84
2021/09/21 00:10:43;;;;;;;8.63;6.18;;;12.30;90.90;;;;;;5029578;28;20022;-84
2021/09/21 00:13:09;;;;;;;8.77;6.57;;;12.40;90.90;;;;;;5032754;28;20045;-86
2021/09/21 00:15:35;;;;;;;8.82;6.47;;;12.30;90.90;;;;;;5034131;28;20032;-81
2021/09/21 00:18:00;;;;;;;7.68;6.63;;;12.30;90.80;;;;;;5016328;28;20083;-83
2021/09/21 00:20:26;;;;;;;7.10;6.40;;;12.40;90.90;;;;;;5033903;28;20044;-85
2021/09/21 00:22:51;;;;;;;7.97;6.20;;;12.30;90.90;;;;;;5033296;28;20025;-84
2021/09/21 00:25:18;;;;;;;7.45;5.85;;;12.30;90.90;;;;;;5016252;28;20029;-86
2021/09/21 00:27:45;;;;;;;7.55;6.20;;;12.30;91.00;;;;;;5009099;28;20044;-83
2021/09/21 00:30:12;;;;;;;6.75;5.70;;;12.30;91.00;;;;;;5025378;28;20112;-86
2021/09/21 00:32:38;;;;;;;8.13;6.45;;;12.30;91.20;;;;;;5006495;28;20033;-84
2021/09/21 00:35:04;;;;;;;9.05;6.97;;;12.40;91.00;;;;;;5031770;28;20675;-83
2021/09/21 00:37:30;;;;;;;8.38;6.40;;;12.30;91.00;;;;;;5023090;28;20033;-85
2021/09/21 00:39:56;;;;;;;8.02;6.38;;;12.40;91.00;;;;;;5016744;28;20703;-87
2021/09/21 00:42:28;;;;;;;8.70;6.53;;;12.40;91.00;;;;;;5014066;28;20049;-84
2021/09/21 00:44:58;;;;;;;6.85;6.07;;;12.40;91.00;;;;;;5015379;28;20021;-83
2021/09/21 00:47:24;;;;;;;7.82;6.25;;;12.40;91.00;;;;;;5016142;28;20132;-83
2021/09/21 00:49:50;;;;;;;7.00;6.30;;;12.50;91.10;;;;;;5018001;28;20444;-82
2021/09/21 00:52:16;;;;;;;7.05;6.20;;;12.40;91.00;;;;;;5033113;28;20033;-84
2021/09/21 00:54:42;;;;;;;7.13;6.30;;;12.40;91.10;;;;;;5028010;28;20696;-85
2021/09/21 00:57:08;;;;;;;7.18;6.40;;;12.40;91.10;;;;;;5015090;28;20029;-84
2021/09/21 00:59:34;;;;;;;7.95;6.05;;;12.40;91.10;;;;;;5012319;28;20559;-85
2021/09/21 01:01:59;;;;;;;8.25;6.50;;;12.40;91.10;;;;;;5033526;28;20033;-84
2021/09/21 01:04:25;;;;;;;7.68;6.72;;;12.40;91.10;;;;;;5033044;28;20040;-84
2021/09/21 01:06:50;;;;;;;7.40;5.65;;;12.40;91.10;;;;;;5020620;28;20061;-85
2021/09/21 01:09:18;;;;;;;7.10;6.30;;;12.40;91.10;;;;;;5017568;28;20056;-86
2021/09/21 01:11:56;;;;;;;8.27;6.25;;;12.40;91.10;;;;;;5017143;28;20045;-84
2021/09/21 01:14:21;;;;;;;7.90;6.40;;;12.40;91.10;;;;;;5019505;28;20083;-84
2021/09/21 01:16:48;;;;;;;7.63;6.40;;;12.40;91.10;;;;;;5019268;28;20121;-83
2021/09/21 01:19:15;;;;;;;7.38;6.20;;;12.40;91.10;;;;;;5020083;28;20109;-85
2021/09/21 01:21:42;;;;;;;9.55;6.88;;;12.40;91.10;;;;;;5025294;28;20025;-84
2021/09/21 01:24:09;;;;;;;8.05;5.97;;;12.40;91.10;;;;;;5011852;28;20040;-83
2021/09/21 01:26:34;;;;;;;8.13;6.13;;;12.40;91.20;;;;;;5027918;28;20075;-86
2021/09/21 01:29:00;;;;;;;7.53;6.20;;;12.40;91.20;;;;;;5034232;28;20029;-84
2021/09/21 01:31:26;;;;;;;6.85;6.13;;;12.40;91.20;;;;;;5033976;28;20041;-83
2021/09/21 01:33:53;;;;;;;8.73;6.43;;;12.40;91.20;;;;;;5027297;28;20486;-84
2021/09/21 01:36:21;;;;;;;9.02;6.63;;;12.40;91.10;;;;;;5017931;28;20504;-86
2021/09/21 01:38:48;;;;;;;7.28;6.47;;;12.30;91.10;;;;;;5015900;28;20102;-83
2021/09/21 01:41:14;;;;;;;8.10;6.43;;;12.30;91.10;;;;;;5018291;28;20333;-83
2021/09/21 01:43:42;;;;;;;8.32;6.55;;;12.30;91.10;;;;;;5035026;28;20045;-85
2021/09/21 01:46:12;;;;;;;7.20;6.43;;;12.30;91.20;;;;;;5037712;28;20037;-84
2021/09/21 01:48:38;;;;;;;9.68;7.05;;;12.30;91.20;;;;;;5019873;28;20071;-83
2021/09/21 01:51:07;;;;;;;8.23;6.40;;;12.30;91.20;;;;;;5020466;28;20045;-85
2021/09/21 01:53:49;;;;;;;11.70;6.75;;;12.30;91.20;;;;;;5016649;28;20030;-84
2021/09/21 01:58:59;;;;;;;8.10;6.43;;;12.30;91.30;;;;;;5023055;28;20087;-83
2021/09/21 02:01:26;;;;;;;7.90;7.00;;;12.20;91.30;;;;;;5018422;28;20034;-83
2021/09/21 02:03:57;;;;;;;7.55;6.65;;;12.20;91.40;;;;;;5018750;28;20033;-85
2021/09/21 02:06:34;;;;;;;8.13;6.85;;;12.20;91.40;;;;;;5036251;28;20084;-84
2021/09/21 02:09:00;;;;;;;9.23;6.60;;;12.20;91.40;;;;;;5035175;28;20034;-86
2021/09/21 02:11:26;;;;;;;7.78;6.47;;;12.20;91.40;;;;;;5018485;28;20080;-84
2021/09/21 02:13:56;;;;;;;8.82;6.65;;;12.20;91.50;;;;;;5013248;28;20357;-82
2021/09/21 02:16:26;;;;;;;7.90;6.47;;;12.10;91.50;;;;;;5039755;28;20009;-81
2021/09/21 02:18:51;;;;;;;7.85;6.85;;;12.10;91.50;;;;;;5050659;28;20033;-82
2021/09/21 02:21:17;;;;;;;7.75;6.68;;;12.10;91.50;;;;;;5016929;28;20492;-83
2021/09/21 02:23:44;;;;;;;8.02;6.38;;;12.00;91.40;;;;;;5035290;28;20033;-82
2021/09/21 02:26:10;;;;;;;8.98;6.72;;;12.00;91.40;;;;;;5018614;28;20037;-85
2021/09/21 02:28:35;;;;;;;7.85;6.35;;;12.10;91.50;;;;;;5013222;28;20036;-84
2021/09/21 02:31:01;;;;;;;9.75;6.45;;;12.00;91.50;;;;;;5034354;28;20060;-84
2021/09/21 02:33:27;;;;;;;8.30;6.82;;;12.00;91.50;;;;;;5027426;28;20026;-84
2021/09/21 02:35:52;;;;;;;9.68;6.95;;;12.00;91.50;;;;;;5035444;28;20029;-86
2021/09/21 02:38:18;;;;;;;9.10;7.03;;;12.00;91.60;;;;;;5029126;28;20044;-84
2021/09/21 02:40:44;;;;;;;7.30;6.55;;;12.00;91.60;;;;;;5010711;28;20021;-84
2021/09/21 02:43:09;;;;;;;8.32;6.50;;;12.00;91.70;;;;;;5027699;28;20044;-82
2021/09/21 02:45:36;;;;;;;9.63;7.22;;;12.00;91.70;;;;;;5014787;28;20049;-85
2021/09/21 02:48:01;;;;;;;9.20;7.05;;;12.00;91.70;;;;;;5029753;28;20572;-84
2021/09/21 02:50:27;;;;;;;8.77;6.82;;;11.90;91.70;;;;;;5025247;28;20037;-84
2021/09/21 02:52:53;;;;;;;8.27;6.05;;;12.00;91.70;;;;;;5016776;28;20036;-85
2021/09/21 02:55:19;;;;;;;7.32;6.55;;;12.00;91.70;;;;;;5016441;28;20037;-84
2021/09/21 02:57:45;;;;;;;8.23;6.68;;;12.00;91.80;;;;;;5011489;28;20026;-83
2021/09/21 03:00:13;;;;;;;7.65;6.13;;;12.00;91.70;;;;;;5010694;28;20535;-83
2021/09/21 03:02:40;;;;;;;7.38;6.60;;;12.00;91.80;;;;;;5024293;28;20025;-83
2021/09/21 03:05:10;;;;;;;7.90;6.20;;;12.10;91.80;;;;;;5030472;28;20041;-83
2021/09/21 03:10:12;;;;;;;12.77;6.78;;;12.00;91.80;;;;;;5033131;28;20044;-82
2021/09/21 03:17:49;;;;;;;7.18;6.47;;;12.00;91.80;;;;;;5027996;28;20033;-83
2021/09/21 03:20:14;;;;;;;8.20;6.90;;;12.00;91.80;;;;;;5023517;28;20025;-82
2021/09/21 03:22:40;;;;;;;8.38;7.00;;;12.00;91.80;;;;;;5011974;28;20461;-84
2021/09/21 03:25:09;;;;;;;9.02;6.97;;;11.90;91.80;;;;;;5017892;28;20033;-84
2021/09/21 03:27:35;;;;;;;8.25;7.10;;;11.90;91.80;;;;;;5012665;28;20025;-81
2021/09/21 03:30:00;;;;;;;7.68;6.57;;;11.90;91.80;;;;;;5009453;28;22029;-84
2021/09/21 03:32:26;;;;;;;9.23;7.10;;;11.90;91.80;;;;;;5028536;28;20105;-85
2021/09/21 03:34:52;;;;;;;8.30;7.22;;;11.90;91.80;;;;;;5007143;28;20137;-84
2021/09/21 03:37:18;;;;;;;7.63;6.75;;;11.90;91.90;;;;;;5031744;28;20033;-83
2021/09/21 03:39:44;;;;;;;7.88;6.65;;;11.90;91.90;;;;;;5011165;28;20127;-85
2021/09/21 03:42:10;;;;;;;9.77;7.20;;;11.90;91.90;;;;;;5035560;28;20049;-85
2021/09/21 03:44:36;;;;;;;9.77;6.93;;;11.90;91.90;;;;;;5030559;28;20101;-82
2021/09/21 03:47:02;;;;;;;8.00;6.80;;;11.90;91.90;;;;;;5015349;28;20021;-84
2021/09/21 03:49:28;;;;;;;9.48;7.28;;;11.90;91.90;;;;;;5017453;28;20034;-84
2021/09/21 03:51:54;;;;;;;8.43;7.30;;;11.90;91.90;;;;;;5013263;28;20034;-83
2021/09/21 03:54:20;;;;;;;9.55;7.45;;;11.90;91.90;;;;;;5047530;22;20874;-66
2021/09/21 03:56:45;;;;;;;9.93;7.40;;;11.90;91.90;;;;;;5035219;28;20508;-66
2021/09/21 03:59:11;;;;;;;9.20;6.82;;;11.80;91.90;;;;;;5040074;28;20044;-66
2021/09/21 04:01:37;;;;;;;8.15;7.35;;;11.80;92.00;;;;;;5031304;28;20076;-66
2021/09/21 04:04:03;;;;;;;7.90;6.55;;;11.80;92.00;;;;;;5025932;28;20021;-67
2021/09/21 04:06:28;;;;;;;11.10;7.13;;;11.80;91.90;;;;;;5027276;28;20017;-66
2021/09/21 04:08:54;;;;;;;8.60;7.50;;;11.80;92.00;;;;;;5027218;28;20440;-66
2021/09/21 04:11:21;;;;;;;10.85;7.10;;;11.80;92.00;;;;;;5029053;28;20021;-66
2021/09/21 04:13:48;;;;;;;8.60;7.40;;;11.80;92.00;;;;;;5007112;28;20091;-66
2021/09/21 04:16:14;;;;;;;8.63;7.18;;;11.80;92.00;;;;;;5022909;28;20021;-66
2021/09/21 04:18:40;;;;;;;7.85;6.82;;;11.80;92.00;;;;;;5024768;28;20021;-66
2021/09/21 04:21:06;;;;;;;8.25;7.05;;;11.80;92.10;;;;;;5015716;28;20092;-66
2021/09/21 04:23:32;;;;;;;7.10;6.38;;;11.80;92.10;;;;;;5020961;28;20121;-66
2021/09/21 04:25:58;;;;;;;8.15;7.03;;;11.80;92.10;;;;;;5025865;28;20057;-66
2021/09/21 04:28:24;;;;;;;9.73;7.05;;;11.80;92.10;;;;;;5027623;28;20021;-67
2021/09/21 04:30:51;;;;;;;10.90;7.13;;;11.80;92.10;;;;;;5023664;28;20030;-66
2021/09/21 04:33:17;;;;;;;10.05;7.47;;;11.90;92.10;;;;;;5022409;28;20037;-66
2021/09/21 04:35:43;;;;;;;8.32;7.43;;;11.80;92.10;;;;;;5007462;28;20105;-66
2021/09/21 04:38:10;;;;;;;9.32;7.65;;;11.80;92.10;;;;;;5029381;28;20160;-66
2021/09/21 04:40:37;;;;;;;9.10;7.30;;;11.90;92.20;;;;;;5018766;28;20022;-66
2021/09/21 04:43:04;;;;;;;8.38;6.93;;;11.80;92.10;;;;;;5012010;28;20402;-66
2021/09/21 04:45:31;;;;;;;8.43;7.38;;;11.80;92.20;;;;;;5022754;28;20036;-66
2021/09/21 04:47:56;;;;;;;12.27;7.45;;;11.80;92.20;;;;;;5025034;28;20029;-66
2021/09/21 04:50:22;;;;;;;9.63;7.97;;;11.90;92.20;;;;;;5021319;28;20029;-66
2021/09/21 04:52:48;;;;;;;9.93;7.43;;;11.80;92.20;;;;;;5026559;28;20033;-66
2021/09/21 04:55:13;;;;;;;9.55;7.10;;;11.80;92.20;;;;;;5024684;28;20155;-66
2021/09/21 04:57:39;;;;;;;8.57;7.45;;;11.80;92.20;;;;;;5010799;28;20037;-66
2021/09/21 05:00:07;;;;;;;8.80;7.43;;;11.80;92.20;;;;;;5024588;28;20113;-66
2021/09/21 05:02:32;;;;;;;12.15;7.78;;;11.80;92.20;;;;;;5025782;28;20018;-66
2021/09/21 05:04:58;;;;;;;9.02;7.22;;;11.80;92.20;;;;;;5024676;28;20033;-66
2021/09/21 05:07:23;;;;;;;11.02;7.93;;;11.80;92.20;;;;;;5024791;28;20509;-66
2021/09/21 05:09:49;;;;;;;8.57;7.18;;;11.80;92.10;;;;;;4999236;28;20112;-66
2021/09/21 05:12:15;;;;;;;8.65;7.18;;;11.70;92.10;;;;;;5010857;28;20431;-66
2021/09/21 05:14:40;;;;;;;9.48;7.53;;;11.80;92.20;;;;;;5026370;28;20044;-66
2021/09/21 05:17:06;;;;;;;12.52;7.40;;;11.70;92.20;;;;;;5027870;28;20457;-66
2021/09/21 05:19:31;;;;;;;10.38;7.55;;;11.80;92.30;;;;;;5022945;28;20021;-66
2021/09/21 05:21:57;;;;;;;9.23;7.45;;;11.70;92.20;;;;;;5027819;28;20051;-66
2021/09/21 05:24:23;;;;;;;10.20;7.82;;;11.70;92.30;;;;;;5005743;28;20032;-66
2021/09/21 05:26:48;;;;;;;9.70;7.57;;;11.70;92.30;;;;;;5017913;28;20037;-65
2021/09/21 05:29:14;;;;;;;9.43;7.78;;;11.70;92.30;;;;;;5021041;28;20474;-66
2021/09/21 05:31:39;;;;;;;9.23;6.95;;;11.70;92.30;;;;;;5026239;28;20028;-65
2021/09/21 05:34:05;;;;;;;9.18;7.70;;;11.70;92.30;;;;;;5020883;28;20493;-66
2021/09/21 05:36:31;;;;;;;8.98;7.10;;;11.80;92.30;;;;;;5022705;28;20105;-66
2021/09/21 05:38:56;;;;;;;9.85;7.47;;;11.70;92.30;;;;;;5020877;28;20075;-66
2021/09/21 05:41:22;;;;;;;11.57;7.75;;;11.80;92.30;;;;;;5023333;28;20500;-66
2021/09/21 05:43:48;;;;;;;8.65;7.57;;;11.80;92.30;;;;;;5027105;28;20057;-65
2021/09/21 05:46:13;;;;;;;12.40;7.63;;;11.80;92.30;;;;;;5025929;28;20083;-66
2021/09/21 05:48:39;;;;;;;10.32;8.18;;;11.80;92.30;;;;;;5012153;28;20069;-66
2021/09/21 05:51:04;;;;;;;10.07;8.73;;;11.80;92.30;;;;;;5015564;28;20044;-66
2021/09/21 05:53:30;;;;;;;9.55;8.10;;;11.80;92.30;;;;;;5025802;28;20033;-66
2021/09/21 05:55:56;;;;;;;9.88;7.80;;;11.80;92.30;;;;;;5015142;28;20037;-66
2021/09/21 05:58:21;;;;;;;10.68;7.90;;;11.90;92.30;;;;;;5028894;28;20025;-66
2021/09/21 06:00:47;;;;;;;9.73;7.35;;;11.90;92.30;;;;;;5009720;28;20025;-66
2021/09/21 06:03:12;;;;;;;10.23;7.35;;;11.90;92.30;;;;;;5025071;28;20022;-66
2021/09/21 06:05:38;;;;;;;9.93;7.43;;;11.80;92.30;;;;;;5022941;28;20029;-66
2021/09/21 06:08:04;;;;;;;11.27;7.40;;;11.80;92.30;;;;;;5010499;28;20437;-66
2021/09/21 06:10:29;;;;;;;11.35;7.80;;;11.90;92.30;;;;;;5028437;28;20108;-66
2021/09/21 06:12:55;;;;;;;8.38;7.22;;;11.90;92.50;;;;;;5025979;28;20117;-66
2021/09/21 06:15:21;;;;;;;10.48;8.02;;;11.90;92.30;;;;;;5018939;28;20053;-65
2021/09/21 06:17:48;;;;;;;13.55;8.18;;;11.90;92.30;;;;;;5021668;28;20021;-66
2021/09/21 06:20:16;;;;;;;11.57;7.93;;;11.90;92.30;;;;;;5007671;28;20053;-66
2021/09/21 06:22:44;;;;;;;9.50;8.13;;;11.90;92.30;;;;;;5016899;28;20018;-66
2021/09/21 06:25:11;;;;;;;9.88;8.07;;;11.90;92.30;;;;;;5026503;28;20029;-66
2021/09/21 06:27:37;;;;;;;9.88;8.60;;;11.90;92.30;;;;;;5027891;28;20064;-66
2021/09/21 06:30:05;;;;;;;9.73;7.80;;;12.00;92.40;;;;;;5031870;28;20053;-66
2021/09/21 06:32:32;;;;;;;12.25;8.20;;;11.90;92.20;;;;;;5024078;28;20359;-66
2021/09/21 06:34:57;;;;;;;9.20;7.80;;;12.00;92.30;;;;;;5026383;28;20477;-67
2021/09/21 06:37:23;;;;;;;9.70;8.23;;;12.00;92.30;;;;;;5028205;28;20041;-67
2021/09/21 06:39:49;;;;;;;10.52;8.30;;;12.00;92.20;;;;;;5027128;28;20075;-66
2021/09/21 06:42:14;;;;;;;9.50;8.02;;;12.00;92.20;;;;;;5030437;28;20044;-66
2021/09/21 06:44:40;;;;;;;10.43;8.25;;;12.00;92.20;;;;;;5030033;28;20032;-66
2021/09/21 06:47:06;;;;;;;10.25;8.55;;;12.00;92.20;;;;;;5026792;28;22103;-69
2021/09/21 06:49:31;;;;;;;10.57;7.95;;;12.00;92.20;;;;;;5022360;28;20033;-66
2021/09/21 06:51:58;;;;;;;10.60;8.30;;;12.00;92.20;;;;;;5025962;28;20037;-66
2021/09/21 06:54:23;;;;;;;9.70;8.10;;;12.00;92.10;;;;;;5029117;28;20038;-65
2021/09/21 06:56:49;;;;;;;13.02;8.02;;;12.00;92.10;;;;;;5023514;28;20178;-66
2021/09/21 06:59:14;;;;;;;8.93;8.02;;;12.00;92.10;;;;;;5025335;28;20026;-66
2021/09/21 07:01:40;;;;;;;10.25;8.02;;;12.10;92.10;;;;;;5019895;28;20077;-65
2021/09/21 07:04:06;;;;;;;12.60;8.68;;;12.10;92.10;;;;;;5020658;28;20363;-65
2021/09/21 07:06:31;;;;;;;12.32;8.35;;;12.10;92.10;;;;;;5026863;28;20497;-65
2021/09/21 07:08:57;;;;;;;10.32;8.30;;;12.10;92.10;;;;;;5027493;28;20100;-65
2021/09/21 07:11:22;;;;;;;9.73;8.05;;;12.10;92.00;;;;;;5026676;28;20033;-65
2021/09/21 07:13:49;;;;;;;10.15;8.20;;;12.20;92.30;;;;;;5026580;28;20018;-66
2021/09/21 07:16:15;;;;;;;12.55;8.40;;;12.20;92.00;;;;;;5004861;28;20052;-65
2021/09/21 07:18:41;;;;;;;10.02;8.20;;;12.20;91.90;;;;;;5024798;28;20022;-66
2021/09/21 07:21:06;;;;;;;12.48;8.05;;;12.20;91.90;;;;;;5024103;28;20039;-65
2021/09/21 07:23:33;;;;;;;9.77;8.13;;;12.20;91.90;;;;;;5024749;28;21035;-65
2021/09/21 07:25:59;;;;;;;9.95;8.40;;;12.20;91.90;;;;;;5027611;28;20036;-64
2021/09/21 07:28:25;;;;;;;10.60;8.45;;;12.30;91.90;;;;;;5032075;28;20033;-64
2021/09/21 07:30:51;;;;;;;10.32;8.07;;;12.30;91.90;;;;;;5030355;28;20480;-65
2021/09/21 07:33:17;;;;;;;10.60;8.18;;;12.40;91.90;;;;;;5028031;28;20121;-65
2021/09/21 07:35:44;;;;;;;45.60;30.35;;;12.40;91.90;;;;;;5022946;28;20504;-67
2021/09/21 07:38:10;;;;;;;12.18;9.43;;;12.40;91.90;;;;;;5027612;28;20029;-64
2021/09/21 07:40:37;;;;;;;10.38;8.25;;;12.50;91.90;;;;;;5027035;28;20466;-65
2021/09/21 07:43:05;;;;;;;9.40;7.75;;;12.60;91.90;;;;;;5029816;28;20059;-64
2021/09/21 07:45:31;;;;;;;11.05;8.23;;;12.60;91.60;;;;;;5030841;28;20014;-65
2021/09/21 07:47:57;;;;;;;10.15;7.78;;;12.70;91.60;;;;;;5032003;28;20037;-65
2021/09/21 07:50:25;;;;;;;11.68;9.27;;;12.70;91.50;;;;;;5031783;28;20038;-64
2021/09/21 07:52:52;;;;;;;10.00;8.48;;;12.70;91.60;;;;;;5031174;28;20025;-64
2021/09/21 07:55:17;;;;;;;9.75;7.85;;;12.80;91.60;;;;;;5013100;28;20037;-64
2021/09/21 07:57:43;;;;;;;9.95;8.57;;;12.90;91.60;;;;;;5031531;28;20108;-64
2021/09/21 08:00:11;;;;;;;12.43;9.60;;;12.90;91.60;;;;;;5014275;28;20083;-65
2021/09/21 08:02:38;;;;;;;11.57;9.57;;;13.00;91.50;;;;;;5012901;28;20029;-64
2021/09/21 08:05:04;;;;;;;10.88;8.35;;;13.00;91.50;;;;;;5029691;28;20517;-65
2021/09/21 08:07:31;;;;;;;12.27;9.23;;;13.10;91.40;;;;;;5019351;28;20034;-64
2021/09/21 08:09:58;;;;;;;9.38;7.93;;;13.10;91.50;;;;;;5029142;28;20048;-64
2021/09/21 08:12:29;;;;;;;9.27;7.88;;;13.20;91.40;;;;;;5030728;28;20025;-65
2021/09/21 08:14:56;;;;;;;9.27;7.55;;;13.30;91.30;;;;;;5030416;28;21918;-65
2021/09/21 08:17:22;;;;;;;9.00;7.38;;;13.30;91.20;;;;;;5013420;28;20501;-64
2021/09/21 08:19:49;;;;;;;9.50;7.80;;;13.30;91.10;;;;;;5029750;28;20107;-64
2021/09/21 08:22:16;;;;;;;10.63;7.90;;;13.30;91.10;;;;;;5031474;28;20018;-64
2021/09/21 08:24:42;;;;;;;32.47;24.85;;;13.30;91.30;;;;;;5019483;28;20022;-64
2021/09/21 08:27:08;;;;;;;12.23;9.00;;;13.40;91.10;;;;;;5030419;28;20021;-64
2021/09/21 08:29:34;;;;;;;8.95;7.72;;;13.40;91.00;;;;;;5031128;28;20025;-64
2021/09/21 08:31:59;;;;;;;8.75;7.85;;;13.50;91.00;;;;;;5031119;28;20405;-64
2021/09/21 08:34:26;;;;;;;14.05;8.15;;;13.60;90.90;;;;;;5011691;28;20098;-64
2021/09/21 08:36:52;;;;;;;9.75;7.97;;;13.60;90.90;;;;;;5030621;28;20104;-64
2021/09/21 08:39:19;;;;;;;9.55;8.02;;;13.70;90.80;;;;;;5030987;28;20108;-65
2021/09/21 08:41:45;;;;;;;10.38;7.75;;;13.70;90.60;;;;;;5028754;28;20021;-64
2021/09/21 08:44:11;;;;;;;10.18;8.40;;;13.70;90.60;;;;;;5024209;28;20017;-64
2021/09/21 08:46:38;;;;;;;11.38;8.15;;;13.70;90.70;;;;;;5030278;28;20394;-64
2021/09/21 08:49:03;;;;;;;10.75;8.30;;;13.80;90.60;;;;;;5028126;28;20013;-64
2021/09/21 08:51:29;;;;;;;8.40;7.45;;;13.90;90.50;;;;;;5025094;28;20544;-64
2021/09/21 08:53:55;;;;;;;9.65;7.47;;;14.10;90.60;;;;;;5029211;28;20398;-64
2021/09/21 08:56:21;;;;;;;10.45;7.63;;;14.30;90.50;;;;;;5012959;28;20025;-64
2021/09/21 08:59:04;;;;;;;9.90;7.53;;;14.40;90.30;;;;;;5016906;28;20479;-65
2021/09/21 09:01:40;;;;;;;12.07;7.75;;;14.60;90.20;;;;;;5011857;28;20037;-64
2021/09/21 09:04:06;;;;;;;9.55;7.60;;;14.80;90.20;;;;;;5008667;28;20040;-64
2021/09/21 09:06:46;;;;;;;10.48;7.28;;;15.00;90.20;;;;;;5030153;28;20128;-65
2021/09/21 09:09:21;;;;;;;8.55;7.18;;;15.20;89.60;;;;;;5030263;28;20083;-65
2021/09/21 09:11:52;;;;;;;7.57;6.70;;;15.30;89.00;;;;;;5030407;28;20514;-65
2021/09/21 09:14:26;;;;;;;7.53;6.72;;;15.50;89.00;;;;;;5029096;28;20071;-65
2021/09/21 09:16:57;;;;;;;9.40;7.30;;;15.60;88.80;;;;;;5030225;28;20477;-65
2021/09/21 09:19:30;;;;;;;8.10;6.80;;;15.70;88.40;;;;;;5030251;28;20029;-64
2021/09/21 09:22:05;;;;;;;11.15;7.50;;;15.90;88.00;;;;;;5029459;28;20383;-64
2021/09/21 09:24:31;;;;;;;8.48;7.18;;;16.10;87.60;;;;;;5025573;28;20072;-64
2021/09/21 09:26:56;;;;;;;11.52;7.70;;;16.20;87.60;;;;;;5009940;28;20058;-64
2021/09/21 09:29:22;;;;;;;10.45;7.18;;;16.30;87.50;;;;;;5010599;28;20533;-65
2021/09/21 09:31:53;;;;;;;8.07;7.28;;;16.50;87.00;;;;;;4997188;28;20044;-65
2021/09/21 09:34:29;;;;;;;20.83;14.63;;;16.60;85.90;;;;;;5027494;28;20036;-65
2021/09/21 09:37:00;;;;;;;11.50;8.30;;;16.60;85.70;;;;;;5029690;28;20108;-64
2021/09/21 09:39:29;;;;;;;8.85;7.20;;;16.60;85.70;;;;;;5010946;28;20585;-64
2021/09/21 09:41:57;;;;;;;8.43;7.13;;;16.70;85.50;;;;;;5029742;28;20026;-65
2021/09/21 09:44:26;;;;;;;7.88;7.07;;;16.80;85.30;;;;;;5029100;28;20404;-65
2021/09/21 09:47:00;;;;;;;8.32;7.40;;;16.90;84.70;;;;;;5029098;28;20440;-64
2021/09/21 09:49:28;;;;;;;8.75;7.45;;;16.90;84.30;;;;;;5029639;28;20033;-65
2021/09/21 09:51:57;;;;;;;8.73;7.30;;;17.00;84.20;;;;;;5029706;28;20460;-65
2021/09/21 09:54:23;;;;;;;8.93;7.68;;;17.10;84.20;;;;;;5088413;22;20301;-65
2021/09/21 09:56:49;;;;;;;9.13;7.15;;;17.10;83.80;;;;;;5009593;28;20378;-65
2021/09/21 09:59:16;;;;;;;10.27;8.38;;;17.10;83.70;;;;;;5006508;28;20038;-66
2021/09/21 10:01:43;;;;;;;7.50;6.80;;;17.10;83.30;;;;;;5013415;28;20529;-65
2021/09/21 10:04:11;;;;;;;8.98;6.63;;;17.20;82.90;;;;;;5012122;28;20669;-64
2021/09/21 10:06:39;;;;;;;9.20;7.63;;;17.20;82.40;;;;;;5018815;28;20470;-64
2021/09/21 10:09:04;;;;;;;9.05;7.70;;;17.30;82.20;;;;;;5013481;28;20049;-66
2021/09/21 10:11:31;;;;;;;8.88;6.88;;;17.40;82.20;;;;;;5013705;28;20056;-65
2021/09/21 10:14:02;;;;;;;8.35;6.88;;;17.50;82.00;;;;;;5011189;28;20049;-65
2021/09/21 10:16:28;;;;;;;8.02;6.78;;;17.60;81.40;;;;;;5013695;28;20109;-66
2021/09/21 10:18:55;;;;;;;8.95;6.45;;;17.60;81.20;;;;;;5013466;28;20109;-65
2021/09/21 10:21:38;;;;;;;6.93;6.22;;;17.70;80.80;;;;;;5013259;28;20037;-65
2021/09/21 10:24:06;;;;;;;8.18;6.05;;;17.80;79.40;;;;;;5012461;28;20018;-65
2021/09/21 10:26:40;;;;;;;6.93;5.82;;;17.80;79.90;;;;;;5013270;28;20054;-64
2021/09/21 10:29:07;;;;;;;7.78;6.30;;;17.80;78.90;;;;;;5013431;28;20084;-64
2021/09/21 10:31:34;;;;;;;8.50;6.50;;;17.80;79.00;;;;;;5013439;28;20092;-66
2021/09/21 10:34:14;;;;;;;7.38;6.57;;;17.90;78.50;;;;;;5012686;28;20771;-64
2021/09/21 10:36:51;;;;;;;7.60;6.55;;;17.80;76.60;;;;;;5011109;28;20048;-64
2021/09/21 10:39:20;;;;;;;6.88;6.18;;;17.70;77.20;;;;;;5013357;28;20092;-66
2021/09/21 10:42:02;;;;;;;7.03;5.95;;;17.70;77.90;;;;;;5012667;28;20022;-65
2021/09/21 10:44:28;;;;;;;8.30;6.35;;;17.70;77.30;;;;;;5011813;28;20489;-65
2021/09/21 10:47:00;;;;;;;9.35;7.60;;;17.60;78.00;;;;;;5012873;28;20064;-66
2021/09/21 10:49:40;;;;;;;8.07;6.95;;;17.60;77.80;;;;;;5013141;28;20026;-65
2021/09/21 10:52:12;;;;;;;11.93;8.65;;;17.50;77.40;;;;;;5018037;28;20025;-64
2021/09/21 10:54:41;;;;;;;72.70;48.30;;;17.40;77.80;;;;;;4993979;28;20041;-66
2021/09/21 10:57:17;;;;;;;8.60;7.68;;;17.30;77.90;;;;;;5012676;28;20045;-65
2021/09/21 11:00:16;;;;;;;8.18;6.20;;;17.20;77.40;;;;;;5006092;28;20113;-65
2021/09/21 11:02:46;;;;;;;7.63;6.38;;;17.00;77.30;;;;;;4989843;28;20133;-66
2021/09/21 11:05:17;;;;;;;7.68;6.60;;;17.00;77.20;;;;;;5012518;28;20021;-66
2021/09/21 11:08:12;;;;;;;7.57;5.75;;;16.90;77.60;;;;;;5012720;28;20435;-65
2021/09/21 11:10:44;;;;;;;9.48;6.18;;;16.90;77.70;;;;;;5009584;28;20030;-67
2021/09/21 11:13:13;;;;;;;6.75;5.85;;;16.90;78.00;;;;;;5011873;28;20050;-66
2021/09/21 11:15:39;;;;;;;6.47;5.15;;;17.00;78.10;;;;;;5010716;28;20117;-65
2021/09/21 11:18:10;;;;;;;6.97;5.90;;;17.00;77.90;;;;;;5012582;28;20097;-65
2021/09/21 11:20:51;;;;;;;6.97;5.90;;;17.10;77.70;;;;;;5013472;28;20048;-66
2021/09/21 11:23:20;;;;;;;5.88;5.28;;;17.30;76.80;;;;;;5022832;28;20045;-66
2021/09/21 11:25:47;;;;;;;6.22;5.57;;;17.30;77.20;;;;;;4994010;28;20037;-66
2021/09/21 11:28:14;;;;;;;6.10;5.47;;;17.30;77.00;;;;;;5012136;28;20081;-65
2021/09/21 11:30:41;;;;;;;7.45;5.47;;;17.40;76.90;;;;;;5011848;28;20155;-64
2021/09/21 11:33:21;;;;;;;7.70;5.93;;;17.30;76.70;;;;;;5010820;28;20069;-65
2021/09/21 11:35:52;;;;;;;6.75;4.82;;;17.20;75.80;;;;;;5019414;28;20036;-66
2021/09/21 11:38:18;;;;;;;6.47;5.88;;;17.10;76.60;;;;;;5027900;28;20021;-65
2021/09/21 11:40:44;;;;;;;55.55;35.45;;;16.90;76.80;;;;;;5011846;28;20044;-65
2021/09/21 11:43:12;;;;;;;9.07;5.85;;;17.00;77.00;;;;;;5008930;28;20112;-66
2021/09/21 11:45:39;;;;;;;5.68;5.07;;;17.00;76.80;;;;;;5011298;28;20033;-65
2021/09/21 11:48:06;;;;;;;6.30;5.13;;;16.90;76.70;;;;;;5011914;28;20104;-66
2021/09/21 11:50:33;;;;;;;6.40;5.07;;;16.90;76.60;;;;;;5011673;28;20109;-64
2021/09/21 11:53:02;;;;;;;6.32;5.13;;;16.90;76.20;;;;;;5025185;28;20029;-66
2021/09/21 11:55:30;;;;;;;6.47;4.85;;;16.80;75.80;;;;;;5019219;28;20042;-66
2021/09/21 11:57:57;;;;;;;6.18;4.82;;;16.80;75.90;;;;;;5011506;28;20036;-65
2021/09/21 12:00:27;;;;;;;6.18;4.90;;;16.80;76.40;;;;;;5004704;28;20026;-66
2021/09/21 12:03:05;;;;;;;6.03;4.70;;;16.80;76.40;;;;;;5010301;28;20493;-65
2021/09/21 12:05:32;;;;;;;8.25;4.63;;;16.70;75.90;;;;;;5011455;28;20393;-65
2021/09/21 12:08:00;;;;;;;6.00;4.90;;;16.80;76.20;;;;;;5011163;28;20057;-65
2021/09/21 12:10:28;;;;;;;5.60;4.90;;;16.90;76.50;;;;;;5011539;28;20029;-64
2021/09/21 12:12:58;;;;;;;6.30;5.03;;;16.90;76.70;;;;;;5010367;28;20121;-64
2021/09/21 12:15:24;;;;;;;6.00;5.25;;;17.10;76.60;;;;;;5011586;28;20112;-64
2021/09/21 12:17:51;;;;;;;6.07;5.47;;;17.30;76.60;;;;;;5011279;28;20109;-68
2021/09/21 12:20:23;;;;;;;7.35;5.53;;;17.50;76.00;;;;;;5010674;28;20470;-66
2021/09/21 12:22:51;;;;;;;6.18;5.13;;;17.60;74.60;;;;;;5010554;28;20079;-66
2021/09/21 12:25:18;;;;;;;7.28;4.97;;;17.60;74.30;;;;;;5010037;28;20056;-67
2021/09/21 12:27:44;;;;;;;5.68;5.13;;;17.60;74.60;;;;;;5015288;28;20443;-65
2021/09/21 12:30:10;;;;;;;8.05;5.18;;;17.70;74.70;;;;;;5030700;28;20132;-65
2021/09/21 12:32:36;;;;;;;11.00;5.22;;;17.80;74.50;;;;;;5029881;28;20037;-65
2021/09/21 12:35:07;;;;;;;6.10;5.18;;;17.70;74.30;;;;;;5030864;28;20076;-67
2021/09/21 12:37:41;;;;;;;8.27;5.33;;;17.80;74.00;;;;;;5023206;28;20332;-68
2021/09/21 12:40:14;;;;;;;8.20;5.22;;;17.70;74.00;;;;;;5011008;28;20473;-68
2021/09/21 12:42:41;;;;;;;7.68;5.53;;;17.70;73.50;;;;;;5001699;28;20026;-66
2021/09/21 12:45:09;;;;;;;5.45;4.78;;;17.60;73.30;;;;;;5014954;28;20044;-66
2021/09/21 12:47:39;;;;;;;7.18;4.97;;;17.50;73.20;;;;;;5010733;28;20034;-65
2021/09/21 12:50:15;;;;;;;9.07;5.50;;;17.50;73.30;;;;;;5010355;28;20486;-65
2021/09/21 12:52:55;;;;;;;5.47;4.60;;;17.50;73.80;;;;;;5009286;28;20033;-65
2021/09/21 12:55:32;;;;;;;8.07;5.22;;;17.60;73.40;;;;;;5010028;28;20049;-65
2021/09/21 12:57:59;;;;;;;5.57;5.03;;;17.60;72.80;;;;;;5010778;28;20038;-67